Tiempo atmosférico en la estación meteorológica de Barx, València/Valencia (340 m.)



Fecha
DESCASC
Temp. máxima en grados centígrados (hora)
DESCASC
Temp. mínima en grados centígrados (hora)
DESCASC
Temp. media en grados centígrados
DESCASC
Racha de viento máxima en m/sg (hora)
DESCASC
Velocidad máxima media en intervalos de 10 minutos(hora)
DESCASC
Precipitaciones diarias en mm
DESCASC
Precipitaciones de 00:00 a 06:00 en mm
DESCASC
Precipitaciones de 06:00 a 12:00 en mm
DESCASC
Precipitaciones de 12:00 a 18:00 en mm
DESCASC
Precipitaciones de 18:00 a 24:00 en mm
DESCASC
13-01-2021 12.6 (16:00) -0.2 (08:50) 6.2 4.72 (12:30) 2.78 (13:40) 0 0 0 0 0
12-01-2021 11.1 (14:30) -0.5 (03:00) 5.3 5.83 (10:20) 2.78 (23:40) 0 0 0 0 0
11-01-2021 7.3 (16:30) 0.4 (23:00) 3.9 3.33 (11:40) 1.94 (11:40) 0 0 0 0 0
10-01-2021 5.2 (16:40) 0.6 (02:10) 2.9 3.06 (04:00) 1.67 (04:40) 0.8 0.2 0.4 0.2 0
09-01-2021 5.8 (02:20) 2 (00:00) 3.9 10 (05:40) 5 (06:40) 43.4 35.4 5.8 1.8 0.4
08-01-2021 5.7 (11:30) 2.5 (00:00) 4.1 9.72 (17:50) 3.89 (01:00) 99.2 16.8 23.2 30.4 28.8
07-01-2021 5.4 (00:00) 2.9 (00:00) 4.2 8.33 (13:10) 4.17 (13:50) 37.4 6.2 6 13 12.2
06-01-2021 9.1 (16:10) -2.5 (-00:0) 3.3 5 (14:50) 3.06 (17:40) 0 0 0 0 0
05-01-2021 10.5 (15:30) -0.8 (-00:0) 4.8 6.11 (02:10) 3.06 (11:50) 0 0 0 0 0
04-01-2021 9.5 (14:00) 3.1 (00:00) 6.3 9.72 (16:40) 5.28 (14:40) 0 0 0 0 0
03-01-2021 10 (15:50) 1.2 (00:00) 5.6 8.89 (14:30) 4.72 (13:40) 0 0 0 0 0
02-01-2021 7.9 (13:30) 2.3 (00:00) 5.1 10.83 (13:30) 5.83 (11:40) 0 0 0 0 0
01-01-2021 11.3 (15:30) 4.8 (00:00) 8.1 12.22 (14:10) 6.11 (16:10) 0 0 0 0 0
31-12-2020 13.5 (14:30) 4.2 (00:00) 8.8 9.72 (10:50) 4.72 (10:10) 0 0 0 0 0
30-12-2020 10.9 (15:00) 4.2 (00:00) 7.5 8.61 (12:30) 5 (12:20) 0 0 0 0 0
29-12-2020 10.7 (14:20) 5.4 (00:00) 8 13.33 (13:30) 6.67 (14:50) 0 0 0 0 0
28-12-2020 13.2 (00:10) 7.8 (00:00) 10.5 18.06 (02:20) 8.33 (09:20) 0 0 0 0 0
27-12-2020 15.3 (14:10) 0.1 (00:00) 7.7 16.11 (21:10) 6.39 (21:10) 0 0 0 0 0
26-12-2020 11.4 (15:50) 0.8 (00:00) 6.1 6.11 (10:00) 3.06 (13:40) 0 0 0 0 0
25-12-2020 11.1 (00:00) 2.9 (00:00) 7 10.56 (19:30) 5.83 (19:30) 0 0 0 0 0
24-12-2020 16.2 (15:40) 9.7 (00:00) 13 6.67 (03:20) 3.33 (18:00) 0 0 0 0 0
23-12-2020 19.8 (14:50) 7.8 (00:10) 13.8 -- (--) -- (--) 0 0 0 0 0
21-12-2020 17.3 (14:50) 4.9 (00:00) 11.1 5.28 (14:20) 2.78 (14:30) 0 0 0 0 0
20-12-2020 17.1 (14:30) 7.2 (00:00) 12.2 5.28 (11:50) 2.78 (12:20) 0.4 0.4 0 0 0
19-12-2020 18.9 (14:30) 5.2 (00:00) 12 5.56 (22:00) 2.78 (16:00) 0 0 0 0 0
18-12-2020 15.8 (12:40) 6.3 (00:00) 11.1 5 (17:10) 3.33 (16:30) 0 0 0 0 0

Gráficas

Temp. máximas Temp. mínimas Temp. medias Precipitaciones Rachas de viento máximas Velocidades máximas media en intervalos de 10 minutos

Datos horarios

Fecha y hora oficial Temperatura (ºC) Velocidad del viento (km/h) Dirección del viento Racha (km/h) Dirección de racha Precipitación (mm) Presión (hPa) Tendencia (hPa) Humedad (%)
2021-01-16 23:00:00 7.7 5 Sur 14 Sur 0 -- -- 48
2021-01-16 22:00:00 7.2 7 Sudeste 12 Sudeste 0 -- -- 51
2021-01-16 21:00:00 8 0 Calma 8 Este 0 -- -- 52
2021-01-16 20:00:00 8.7 3 Norte 9 Nordeste 0 -- -- 51
2021-01-16 19:00:00 8.8 2 Nordeste 14 Noroeste 0 -- -- 51
2021-01-16 18:00:00 9.6 8 Sur 12 Sur 0 -- -- 50
2021-01-16 17:00:00 13 6 Sur 10 Sur 0 -- -- 42
2021-01-16 16:00:00 14.7 4 Oeste 11 Noroeste 0 -- -- 36
2021-01-16 15:00:00 14.1 5 Oeste 13 Noroeste 0 -- -- 38
2021-01-16 14:00:00 12.6 8 Noroeste 18 Noroeste 0 -- -- 42
2021-01-16 13:00:00 11.5 11 Oeste 16 Oeste 0 -- -- 44
2021-01-16 12:00:00 10.4 7 Oeste 15 Oeste 0 -- -- 48
2021-01-16 11:00:00 8.4 6 Noroeste 12 Noroeste 0 -- -- 49
2021-01-16 10:00:00 5.6 0 Calma 8 Noroeste 0 -- -- 57
2021-01-16 09:00:00 2.3 3 Sur 10 Sur 0 -- -- 70
2021-01-16 08:00:00 1.2 4 Sur 8 Sudeste 0 -- -- 76
2021-01-16 07:00:00 2.5 3 Norte 9 Sudeste 0 -- -- 70
2021-01-16 06:00:00 3.2 3 Sudeste 10 Sudeste 0 -- -- 67
2021-01-16 05:00:00 3.3 2 Sur 8 Este 0 -- -- 68
2021-01-16 04:00:00 5.8 7 Este 12 Este 0 -- -- 56
2021-01-16 03:00:00 5.6 4 Este 13 Norte 0 -- -- 57
2021-01-16 02:00:00 6.1 2 Nordeste 11 Este 0 -- -- 56
2021-01-16 01:00:00 5.4 4 Nordeste 9 Nordeste 0 -- -- 62
2021-01-16 00:00:00 6.5 4 Este 10 Este 0 -- -- 58
2021-01-15 23:00:00 6.5 3 Nordeste 10 Nordeste 0 -- -- 61
2021-01-15 22:00:00 6.3 3 Nordeste 10 Sudeste 0 -- -- 64
2021-01-15 21:00:00 6.5 2 Norte 9 Este 0 -- -- 63
2021-01-15 20:00:00 7.1 2 Este 8 Oeste 0 -- -- 62
2021-01-15 19:00:00 8.2 0 Calma 6 Este 0 -- -- 62
2021-01-15 18:00:00 10.6 3 Este 17 Noroeste 0 -- -- 52
2021-01-15 17:00:00 12.4 11 Noroeste 28 Noroeste 0 -- -- 46
2021-01-15 16:00:00 13.3 10 Noroeste 24 Noroeste 0 -- -- 46
2021-01-15 15:00:00 15.1 8 Oeste 18 Oeste 0 -- -- 44
2021-01-15 14:00:00 14.6 10 Oeste 17 Oeste 0 -- -- 48
2021-01-15 13:00:00 13.2 4 Sudoeste 18 Oeste 0 -- -- 46
2021-01-15 12:00:00 10.9 8 Noroeste 20 Noroeste 0 -- -- 53
2021-01-15 11:00:00 9.9 8 Noroeste 17 Noroeste 0 -- -- 55
2021-01-15 10:00:00 8.2 5 Norte 17 Noroeste 0 -- -- 61
2021-01-15 09:00:00 6.5 2 Este 11 Este 0 -- -- 67
2021-01-15 08:00:00 7.4 5 Norte 17 Noroeste 0 -- -- 63
2021-01-15 07:00:00 6.6 4 Nordeste 18 Noroeste 0 -- -- 67
2021-01-15 06:00:00 6.8 3 Noroeste 12 Noroeste 0 -- -- 67
2021-01-15 05:00:00 7 2 Norte 11 Oeste 0 -- -- 65
2021-01-15 04:00:00 6.6 4 Sur 11 Sudeste 0 -- -- 67
2021-01-15 03:00:00 7.4 2 Nordeste 8 Sudeste 0 -- -- 60
2021-01-15 02:00:00 7.7 4 Nordeste 15 Este 0 -- -- 52
2021-01-15 01:00:00 8.1 6 Este 17 Nordeste 0 -- -- 49
2021-01-15 00:00:00 7.7 5 Nordeste 10 Nordeste 0 -- -- 47
2021-01-14 23:00:00 7.7 4 Sudeste 14 Este 0 -- -- 52
2021-01-14 22:00:00 8 3 Nordeste 11 Sudeste 0 -- -- 50
2021-01-14 21:00:00 8.5 4 Este 12 Noroeste 0 -- -- 52
2021-01-14 20:00:00 9 4 Nordeste 10 Nordeste 0 -- -- 49
2021-01-14 19:00:00 8.7 3 Nordeste 9 Nordeste 0 -- -- 51
2021-01-14 18:00:00 9.2 2 Sudoeste 8 Este 0 -- -- 59
2021-01-14 17:00:00 13.1 0 Calma 9 Oeste 0 -- -- 42
2021-01-14 16:00:00 14.6 5 Oeste 11 Oeste 0 -- -- 40
2021-01-14 15:00:00 14.1 7 Oeste 14 Oeste 0 -- -- 38
2021-01-14 14:00:00 13.1 4 Noroeste 12 Noroeste 0 -- -- 38
2021-01-14 13:00:00 12.4 3 Oeste 10 Oeste 0 -- -- 39
2021-01-14 12:00:00 10.7 3 Este 11 Oeste 0 -- -- 40
2021-01-14 11:00:00 9 4 Nordeste 9 Este 0 -- -- 47
2021-01-14 10:00:00 6 3 Este 14 Este 0 -- -- 55
2021-01-14 09:00:00 3 6 Norte 12 Noroeste 0 -- -- 69
2021-01-14 08:00:00 3.2 2 Este 14 Noroeste 0 -- -- 68
2021-01-14 07:00:00 0.5 0 Calma 6 Sur 0 -- -- 83
2021-01-14 06:00:00 2.4 0 Calma 6 Norte 0 -- -- 74
2021-01-14 05:00:00 3.2 4 Norte 10 Oeste 0 -- -- 71
2021-01-14 04:00:00 1.2 0 Calma 8 Nordeste 0 -- -- 82
2021-01-14 03:00:00 4 4 Nordeste 8 Norte 0 -- -- 69
2021-01-14 02:00:00 3.9 2 Nordeste 11 Noroeste 0 -- -- 70
2021-01-14 01:00:00 3.3 2 Sur 12 Noroeste 0 -- -- 74
2021-01-14 00:00:00 4.3 4 Este 10 Nordeste 0 -- -- 69
2021-01-13 23:00:00 2.8 0 Calma 4 Norte 0 -- -- 78
2021-01-13 22:00:00 4 0 Calma 9 Nordeste 0 -- -- 73
2021-01-13 21:00:00 4 3 Nordeste 12 Nordeste 0 -- -- 75
2021-01-13 20:00:00 3.3 4 Sur 7 Sur 0 -- -- 81
2021-01-13 19:00:00 5.2 5 Sur 10 Sur 0 -- -- 71
2021-01-13 18:00:00 7.2 5 Sur 9 Sur 0 -- -- 65
2021-01-13 17:00:00 10.7 0 Calma 6 Noroeste 0 -- -- 54
2021-01-13 16:00:00 12.6 3 Oeste 12 Oeste 0 -- -- 46
2021-01-13 15:00:00 11.9 7 Oeste 15 Oeste 0 -- -- 41
2021-01-13 14:00:00 11.3 10 Oeste 14 Oeste 0 -- -- 44
2021-01-13 13:00:00 9.9 7 Noroeste 17 Noroeste 0 -- -- 47
2021-01-13 12:00:00 8.4 6 Oeste 15 Noroeste 0 -- -- 45
2021-01-13 11:00:00 7.6 4 Noroeste 13 Este 0 -- -- 46
2021-01-13 10:00:00 4.1 3 Este 10 Nordeste 0 -- -- 55
2021-01-13 09:00:00 0.3 0 Calma 6 Sur 0 -- -- 75
2021-01-13 08:00:00 1.4 3 Nordeste 11 Este 0 -- -- 68
2021-01-13 07:00:00 2.5 4 Nordeste 11 Este 0 -- -- 62
2021-01-13 06:00:00 0.7 0 Calma 6 Sudoeste 0 -- -- 74
2021-01-13 05:00:00 2 0 Calma 6 Norte 0 -- -- 71
2021-01-13 04:00:00 2.4 2 Sudeste 8 Este 0 -- -- 66
2021-01-13 03:00:00 3.2 3 Nordeste 13 Sudeste 0 -- -- 63
2021-01-13 02:00:00 4.2 4 Sudeste 10 Sur 0 -- -- 60
2021-01-13 01:00:00 3.6 5 Sur 12 Sur 0 -- -- 61
2021-01-13 00:00:00 4.3 3 Sur 14 Sudeste 0 -- -- 59
2021-01-12 23:00:00 4.5 4 Sur 14 Sur 0 -- -- 57
2021-01-12 22:00:00 4.6 3 Sur 15 Sudeste 0 -- -- 57
2021-01-12 21:00:00 4.5 4 Nordeste 12 Norte 0 -- -- 57
2021-01-12 20:00:00 4.4 4 Nordeste 12 Este 0 -- -- 57
2021-01-12 19:00:00 4 4 Este 9 Sudeste 0 -- -- 66
2021-01-12 18:00:00 5.7 0 Calma 3 Norte 0 -- -- 71
2021-01-12 17:00:00 9.2 0 Calma 9 Noroeste 0 -- -- 53
2021-01-12 16:00:00 10.5 6 Noroeste 14 Noroeste 0 -- -- 48
2021-01-12 15:00:00 11.1 8 Noroeste 16 Oeste 0 -- -- 48
2021-01-12 14:00:00 10.6 7 Noroeste 17 Noroeste 0 -- -- 44
2021-01-12 13:00:00 9.1 5 Noroeste 13 Noroeste 0 -- -- 43
2021-01-12 12:00:00 7.4 6 Noroeste 19 Oeste 0 -- -- 40
2021-01-12 11:00:00 6.6 3 Sudeste 21 Oeste 0 -- -- 50
2021-01-12 10:00:00 3.5 8 Sur 18 Sudoeste 0 -- -- 59
2021-01-12 09:00:00 1.7 0 Calma 12 Oeste 0 -- -- 64
2021-01-12 08:00:00 0.5 3 Sudoeste 10 Sur 0 -- -- 73
2021-01-12 07:00:00 -0.1 0 Calma 8 Sudeste 0 -- -- 81
2021-01-12 06:00:00 0.4 2 Sudeste 15 Sudeste 0 -- -- 77
2021-01-12 05:00:00 1 9 Sudeste 15 Sudeste 0 -- -- 75
2021-01-12 04:00:00 1.3 5 Sur 16 Sur 0 -- -- 77
2021-01-12 03:00:00 -0.5 4 Sur 10 Sur 0 -- -- 88
2021-01-12 02:00:00 1.4 4 Este 10 Nordeste 0 -- -- 76
2021-01-12 01:00:00 0.6 2 Norte 9 Este 0 -- -- 84
2021-01-12 00:00:00 0.7 2 Noroeste 9 Norte 0 -- -- 87
2021-01-11 23:00:00 0.4 0 Calma 8 Norte 0 -- -- 92
2021-01-11 22:00:00 2.2 3 Nordeste 6 Este 0 -- -- 90
2021-01-11 21:00:00 1.1 0 Calma 10 Sudeste 0 -- -- 96
2021-01-11 20:00:00 2 7 Sur 10 Sur 0 -- -- 95
2021-01-11 19:00:00 2.9 4 Sudeste 8 Sur 0 -- -- 92
2021-01-11 18:00:00 4.7 5 Sur 8 Sur 0 -- -- 86
2021-01-11 17:00:00 6.5 2 Oeste 8 Norte 0 -- -- 82
2021-01-11 16:00:00 6.4 2 Nordeste 6 Norte 0 -- -- 76
2021-01-11 15:00:00 6.3 3 Norte 6 Nordeste 0 -- -- 75
2021-01-11 14:00:00 5 2 Norte 10 Nordeste 0 -- -- 85
2021-01-11 13:00:00 5.4 5 Norte 10 Norte 0 -- -- 85
2021-01-11 12:00:00 6.2 6 Norte 12 Nordeste 0 -- -- 85
2021-01-11 11:00:00 7.2 2 Oeste 5 Noroeste 0 -- -- 87
2021-01-11 10:00:00 5 2 Sudeste 3 Sudeste 0 -- -- 97
2021-01-11 09:00:00 4.4 0 Calma 3 Sur 0 -- -- 97
2021-01-11 08:00:00 4.4 0 Calma 4 Norte 0 -- -- 96
2021-01-11 07:00:00 4.4 3 Norte 5 Norte 0 -- -- 97
2021-01-11 06:00:00 4.3 0 Calma 3 Nordeste 0 -- -- 97
2021-01-11 05:00:00 4.4 0 Calma 4 Nordeste 0 -- -- 97
2021-01-11 04:00:00 4.3 0 Calma 4 Norte 0 -- -- 99
2021-01-11 03:00:00 3.9 0 Calma 4 Nordeste 0 -- -- 100
2021-01-11 02:00:00 3.7 0 Calma 3 Sudeste 0 -- -- 100
2021-01-11 01:00:00 3.8 0 Calma 3 Sur 0 -- -- 99
2021-01-11 00:00:00 4.2 0 Calma 3 Sur 0 -- -- 99
2021-01-10 23:00:00 4.6 0 Calma 0 Calma 0 -- -- 98
2021-01-10 22:00:00 4.7 0 Calma 2 Noroeste 0 -- -- 97
2021-01-10 21:00:00 4.6 0 Calma 6 Oeste 0 -- -- 97
2021-01-10 20:00:00 4.6 2 Noroeste 5 Noroeste 0 -- -- 97
2021-01-10 19:00:00 4.7 0 Calma 2 Oeste 0 -- -- 96
2021-01-10 18:00:00 4.7 0 Calma 2 Oeste 0 -- -- 94
2021-01-10 17:00:00 5 0 Calma 3 Oeste 0 -- -- 94
2021-01-10 16:00:00 4.9 0 Calma 5 Noroeste 0 -- -- 94
2021-01-10 15:00:00 4.6 0 Calma 6 Noroeste 0 -- -- 92
2021-01-10 14:00:00 4.5 2 Nordeste 9 Norte 0 -- -- 97
2021-01-10 13:00:00 4.4 0 Calma 5 Oeste 0.2 -- -- 99
2021-01-10 12:00:00 4.3 0 Calma 6 Noroeste 0.2 -- -- 100
2021-01-10 11:00:00 4.3 6 Oeste 9 Oeste 0.2 -- -- 99
2021-01-10 10:00:00 3.7 0 Calma 9 Nordeste 0 -- -- 100
2021-01-10 09:00:00 2.5 0 Calma 6 Oeste 0 -- -- 100
2021-01-10 08:00:00 1.4 0 Calma 6 Sudeste 0 -- -- 100
2021-01-10 07:00:00 0.6 4 Sur 7 Sur 0 -- -- 100
2021-01-10 06:00:00 0.7 3 Sur 8 Sudeste 0.2 -- -- 100
2021-01-10 05:00:00 1.7 3 Sudeste 10 Sur 0 -- -- 100
2021-01-10 04:00:00 2 6 Sur 11 Sur 0 -- -- 100
2021-01-10 03:00:00 2.6 3 Norte 8 Noroeste 0 -- -- 100
2021-01-10 02:00:00 0.9 0 Calma 4 Noroeste 0 -- -- 100
2021-01-10 01:00:00 1.6 0 Calma 4 Oeste 0 -- -- 100
2021-01-10 00:00:00 2 0 Calma 4 Sudeste 0 -- -- 100
2021-01-09 23:00:00 2.9 0 Calma 6 Este 0 -- -- 100
2021-01-09 22:00:00 3.5 2 Sur 8 Este 0 -- -- 100
2021-01-09 21:00:00 4.1 4 Norte 13 Noroeste 0 -- -- 100
2021-01-09 20:00:00 4 3 Noroeste 11 Nordeste 0 -- -- 100
2021-01-09 19:00:00 3.8 3 Nordeste 12 Noroeste 0.4 -- -- 100
2021-01-09 18:00:00 3.5 2 Norte 12 Noroeste 0 -- -- 100
2021-01-09 17:00:00 3.6 4 Noroeste 14 Noroeste 0.2 -- -- 100
2021-01-09 16:00:00 3.8 2 Noroeste 7 Noroeste 0.4 -- -- 100
2021-01-09 15:00:00 3.3 3 Norte 16 Oeste 1 -- -- 100
2021-01-09 14:00:00 3.1 8 Noroeste 14 Noroeste 0.2 -- -- 100
2021-01-09 13:00:00 2.7 6 Noroeste 17 Oeste 0 -- -- 100
2021-01-09 12:00:00 2.7 5 Noroeste 17 Noroeste 0 -- -- 100
2021-01-09 11:00:00 2.4 5 Noroeste 13 Noroeste 0.2 -- -- 100
2021-01-09 10:00:00 2.2 0 Calma 19 Oeste 1 -- -- 100
2021-01-09 09:00:00 3.2 5 Noroeste 12 Norte 1.4 -- -- 100
2021-01-09 08:00:00 3.2 7 Norte 22 Nordeste 1.6 -- -- 100
2021-01-09 07:00:00 3.1 16 Norte 35 Nordeste 1.6 -- -- 100
2021-01-09 06:00:00 3.8 18 Norte 36 Norte 4.8 -- -- 100
2021-01-09 05:00:00 4.5 6 Noroeste 26 Norte 7.8 -- -- 100
2021-01-09 04:00:00 5.1 9 Norte 33 Norte 6.4 -- -- 100
2021-01-09 03:00:00 5.4 14 Norte 31 Este 6.6 -- -- 100
2021-01-09 02:00:00 5.6 9 Norte 25 Norte 4.6 -- -- 100
2021-01-09 01:00:00 5.4 10 Noroeste 30 Norte 5.2 -- -- 99
2021-01-09 00:00:00 5.5 7 Este 32 Este 4.6 -- -- 99
2021-01-08 23:00:00 5.5 8 Este 33 Nordeste 4 -- -- 98
2021-01-08 22:00:00 5.6 10 Sudeste 29 Sudeste 5.6 -- -- 99
2021-01-08 21:00:00 5.4 6 Norte 31 Norte 6.6 -- -- 98
2021-01-08 20:00:00 4.8 5 Norte 21 Sudeste 4.6 -- -- 98
2021-01-08 19:00:00 4.7 6 Sudeste 33 Sur 3.4 -- -- 96
2021-01-08 18:00:00 4.9 8 Sur 35 Este 3.4 -- -- 95
2021-01-08 17:00:00 5 5 Este 30 Norte 2.8 -- -- 96
2021-01-08 16:00:00 5 5 Sur 28 Este 5 -- -- 96
2021-01-08 15:00:00 5.1 6 Este 30 Sur 6 -- -- 96
2021-01-08 14:00:00 5.2 5 Este 26 Sur 5.8 -- -- 96
2021-01-08 13:00:00 5.5 9 Sudeste 33 Nordeste 7.4 -- -- 99
2021-01-08 12:00:00 5.7 8 Este 28 Este 6.2 -- -- 100
2021-01-08 11:00:00 5.5 7 Sudeste 30 Sur 7.4 -- -- 100
2021-01-08 10:00:00 4.7 8 Noroeste 22 Noroeste 2.8 -- -- 100
2021-01-08 09:00:00 3.2 7 Noroeste 12 Noroeste 3.2 -- -- 100
2021-01-08 08:00:00 2.8 3 Nordeste 9 Nordeste 2.4 -- -- 100
2021-01-08 07:00:00 2.6 0 Calma 5 Norte 1.2 -- -- 100
2021-01-08 06:00:00 2.5 0 Calma 8 Noroeste 1.6 -- -- 100
2021-01-08 05:00:00 2.6 4 Noroeste 8 Oeste 1.8 -- -- 100
2021-01-08 04:00:00 2.6 0 Calma 12 Noroeste 3.2 -- -- 100
2021-01-08 03:00:00 3.1 4 Noroeste 13 Norte 3 -- -- 100
2021-01-08 02:00:00 4 9 Norte 30 Norte 3.4 -- -- 100
2021-01-08 01:00:00 3.9 14 Norte 28 Norte 3.8 -- -- 100
2021-01-08 00:00:00 4 9 Norte 24 Nordeste 3 -- -- 100
2021-01-07 23:00:00 3.7 9 Norte 21 Nordeste 2.2 -- -- 100
2021-01-07 22:00:00 3.3 4 Oeste 10 Norte 1.6 -- -- 100
2021-01-07 21:00:00 3 2 Norte 5 Nordeste 1.8 -- -- 100
2021-01-07 20:00:00 2.9 2 Noroeste 8 Nordeste 1.6 -- -- 100
2021-01-07 19:00:00 3.1 6 Norte 14 Norte 2 -- -- 100
2021-01-07 18:00:00 3.5 2 Norte 16 Nordeste 2.6 -- -- 100
2021-01-07 17:00:00 4 4 Norte 11 Norte 2.2 -- -- 99
2021-01-07 16:00:00 4 2 Norte 8 Noroeste 2.6 -- -- 99
2021-01-07 15:00:00 4.4 6 Norte 26 Norte 1.8 -- -- 99
2021-01-07 14:00:00 4.6 11 Norte 30 Norte 1.6 -- -- 99
2021-01-07 13:00:00 5 9 Norte 26 Norte 2.2 -- -- 99
2021-01-07 12:00:00 5.2 6 Noroeste 14 Norte 1 -- -- 98
2021-01-07 11:00:00 4.9 4 Noroeste 23 Nordeste 1 -- -- 98
2021-01-07 10:00:00 4.4 8 Noroeste 14 Oeste 1 -- -- 100
2021-01-07 09:00:00 3.9 2 Oeste 4 Norte 1.4 -- -- 100
2021-01-07 08:00:00 3.9 3 Noroeste 6 Noroeste 0.8 -- -- 99
2021-01-07 07:00:00 4.1 3 Noroeste 9 Nordeste 0.8 -- -- 97
2021-01-07 06:00:00 4.3 3 Sudeste 15 Sudeste 0.8 -- -- 93
2021-01-07 05:00:00 4.1 3 Sudoeste 16 Nordeste 2.2 -- -- 96
2021-01-07 04:00:00 4.2 2 Norte 10 Este 0.8 -- -- 97
2021-01-07 03:00:00 4.1 0 Calma 5 Oeste 1.2 -- -- 96
2021-01-07 02:00:00 4.4 5 Nordeste 14 Nordeste 0.6 -- -- 94
2021-01-07 01:00:00 5.3 2 Este 10 Sur 0.6 -- -- 89
2021-01-07 00:00:00 5.4 0 Calma 6 Este 0 -- -- 87
2021-01-06 23:00:00 5.6 0 Calma 7 Sur 0 -- -- 83
2021-01-06 22:00:00 6.3 6 Sur 16 Sur 0 -- -- 78
2021-01-06 21:00:00 6.2 8 Sudeste 16 Sur 0 -- -- 77
2021-01-06 20:00:00 5.9 8 Sur 17 Sudeste 0 -- -- 78
2021-01-06 19:00:00 5.8 8 Sur 18 Sur 0 -- -- 77
2021-01-06 18:00:00 6 9 Sur 17 Sur 0 -- -- 74
2021-01-06 17:00:00 7.3 7 Sur 15 Sur 0 -- -- 65
2021-01-06 16:00:00 9 3 Sudoeste 14 Nordeste 0 -- -- 60
2021-01-06 15:00:00 8.5 10 Nordeste 18 Nordeste 0 -- -- 60
2021-01-06 14:00:00 8.3 7 Nordeste 13 Norte 0 -- -- 56
2021-01-06 13:00:00 7.7 6 Nordeste 14 Nordeste 0 -- -- 55
2021-01-06 12:00:00 7.1 5 Nordeste 9 Nordeste 0 -- -- 53
2021-01-06 11:00:00 5.4 3 Noroeste 11 Noroeste 0 -- -- 58
2021-01-06 10:00:00 2.5 2 Norte 8 Oeste 0 -- -- 66
2021-01-06 09:00:00 -2 4 Sur 7 Sur 0 -- -- 88
2021-01-06 08:00:00 -2.2 3 Sur 6 Sudeste 0 -- -- 87
2021-01-06 07:00:00 -1.8 3 Sur 7 Sur 0 -- -- 84
2021-01-06 06:00:00 -1.6 3 Sur 8 Sur 0 -- -- 82
2021-01-06 05:00:00 -1.8 4 Sudeste 7 Sur 0 -- -- 84
2021-01-06 04:00:00 -1.9 2 Sur 6 Sur 0 -- -- 83
2021-01-06 03:00:00 -1 3 Sur 8 Sur 0 -- -- 80
2021-01-06 02:00:00 -1.1 3 Sur 8 Sur 0 -- -- 81
2021-01-06 01:00:00 -1 3 Sur 6 Sur 0 -- -- 81
2021-01-06 00:00:00 -0.6 2 Sur 8 Sudeste 0 -- -- 77
2021-01-05 23:00:00 -0.2 3 Sudeste 10 Sur 0 -- -- 76
2021-01-05 22:00:00 -0.8 3 Sur 6 Sur 0 -- -- 77
2021-01-05 21:00:00 -0.3 5 Sur 9 Sur 0 -- -- 73
2021-01-05 20:00:00 1.1 4 Sur 9 Sur 0 -- -- 65
2021-01-05 19:00:00 2.3 3 Sur 12 Sur 0 -- -- 63
2021-01-05 18:00:00 4.6 6 Sur 10 Sur 0 -- -- 54
2021-01-05 17:00:00 7.7 0 Calma 11 Oeste 0 -- -- 46
2021-01-05 16:00:00 9.4 5 Noroeste 14 Noroeste 0 -- -- 41
2021-01-05 15:00:00 10 6 Oeste 17 Noroeste 0 -- -- 45
2021-01-05 14:00:00 8.9 5 Noroeste 18 Noroeste 0 -- -- 47
2021-01-05 13:00:00 8.4 6 Noroeste 16 Oeste 0 -- -- 47
2021-01-05 12:00:00 6.8 9 Oeste 16 Oeste 0 -- -- 54
2021-01-05 11:00:00 5.5 4 Noroeste 13 Noroeste 0 -- -- 60
2021-01-05 10:00:00 3.4 3 Nordeste 11 Noroeste 0 -- -- 67
2021-01-05 09:00:00 1.8 3 Norte 7 Norte 0 -- -- 77
2021-01-05 08:00:00 1.3 4 Sur 10 Sudeste 0 -- -- 79
2021-01-05 07:00:00 1.3 2 Sudoeste 14 Sudeste 0 -- -- 81
2021-01-05 06:00:00 1.9 2 Norte 12 Noroeste 0 -- -- 77
2021-01-05 05:00:00 2.4 3 Norte 14 Noroeste 0 -- -- 79
2021-01-05 04:00:00 2.7 6 Norte 22 Noroeste 0 -- -- 80
2021-01-05 03:00:00 3.1 9 Norte 22 Noroeste 0 -- -- 78
2021-01-05 02:00:00 3.5 8 Norte 17 Norte 0 -- -- 76
2021-01-05 01:00:00 3.4 5 Norte 15 Noroeste 0 -- -- 76
2021-01-05 00:00:00 3.3 3 Norte 17 Norte 0 -- -- 77
2021-01-04 23:00:00 4 4 Norte 10 Noroeste 0 -- -- 73
2021-01-04 22:00:00 4.3 6 Norte 17 Noroeste 0 -- -- 72
2021-01-04 21:00:00 4.9 5 Noroeste 19 Noroeste 0 -- -- 68
2021-01-04 20:00:00 4.7 3 Noroeste 16 Norte 0 -- -- 68
2021-01-04 19:00:00 5.6 6 Noroeste 16 Noroeste 0 -- -- 62
2021-01-04 18:00:00 6.4 6 Norte 24 Noroeste 0 -- -- 58
2021-01-04 17:00:00 7.8 14 Noroeste 35 Noroeste 0 -- -- 52
2021-01-04 16:00:00 8.6 9 Noroeste 35 Norte 0 -- -- 52
2021-01-04 15:00:00 9.4 17 Noroeste 34 Noroeste 0 -- -- 50
2021-01-04 14:00:00 9.5 15 Noroeste 30 Noroeste 0 -- -- 50
2021-01-04 13:00:00 9.2 15 Noroeste 32 Noroeste 0 -- -- 51
2021-01-04 12:00:00 8.4 8 Noroeste 27 Norte 0 -- -- 57
2021-01-04 11:00:00 6.8 9 Noroeste 26 Oeste 0 -- -- 62
2021-01-04 10:00:00 5.7 14 Oeste 28 Noroeste 0 -- -- 65
2021-01-04 09:00:00 4.2 5 Noroeste 14 Noroeste 0 -- -- 70
2021-01-04 08:00:00 3.5 2 Sudeste 11 Oeste 0 -- -- 71
2021-01-04 07:00:00 3.6 7 Sur 23 Sudoeste 0 -- -- 69
2021-01-04 06:00:00 3.8 10 Sudoeste 25 Sudoeste 0 -- -- 67
2021-01-04 05:00:00 4.3 8 Sudoeste 26 Oeste 0 -- -- 67
2021-01-04 04:00:00 4.9 10 Oeste 25 Oeste 0 -- -- 64
2021-01-04 03:00:00 5.1 8 Oeste 27 Sudoeste 0 -- -- 61
2021-01-04 02:00:00 5 10 Sudoeste 30 Oeste 0 -- -- 60
2021-01-04 01:00:00 5.3 10 Oeste 34 Oeste 0 -- -- 56
2021-01-04 00:00:00 4.5 3 Sudoeste 29 Sudoeste 0 -- -- 57
2021-01-03 23:00:00 4.7 6 Sudoeste 23 Sudoeste 0 -- -- 56
2021-01-03 22:00:00 5.3 0 Calma 12 Oeste 0 -- -- 57
2021-01-03 21:00:00 5.5 2 Nordeste 14 Noroeste 0 -- -- 58
2021-01-03 20:00:00 6.2 9 Norte 21 Noroeste 0 -- -- 54
2021-01-03 19:00:00 6.6 9 Norte 22 Noroeste 0 -- -- 55
2021-01-03 18:00:00 7.6 11 Norte 27 Oeste 0 -- -- 52
2021-01-03 17:00:00 8.6 12 Noroeste 29 Norte 0 -- -- 47
2021-01-03 16:00:00 9.9 10 Noroeste 30 Noroeste 0 -- -- 44
2021-01-03 15:00:00 9.6 13 Noroeste 32 Noroeste 0 -- -- 44
2021-01-03 14:00:00 9.3 16 Noroeste 31 Noroeste 0 -- -- 44
2021-01-03 13:00:00 8.4 12 Noroeste 30 Oeste 0 -- -- 44
2021-01-03 12:00:00 6.8 14 Noroeste 27 Noroeste 0 -- -- 50
2021-01-03 11:00:00 4.9 11 Noroeste 26 Noroeste 0 -- -- 54
2021-01-03 10:00:00 3.2 11 Noroeste 23 Noroeste 0 -- -- 58
2021-01-03 09:00:00 1.7 8 Norte 19 Noroeste 0 -- -- 58
2021-01-03 08:00:00 1.5 8 Norte 19 Noroeste 0 -- -- 59
2021-01-03 07:00:00 1.2 6 Norte 18 Noroeste 0 -- -- 62
2021-01-03 06:00:00 1.7 6 Norte 14 Noroeste 0 -- -- 61
2021-01-03 05:00:00 1.7 3 Norte 13 Noroeste 0 -- -- 63
2021-01-03 04:00:00 2.1 5 Norte 13 Noroeste 0 -- -- 64
2021-01-03 03:00:00 2.1 4 Norte 14 Noroeste 0 -- -- 63
2021-01-03 02:00:00 2.4 5 Norte 14 Norte 0 -- -- 63
2021-01-03 01:00:00 2.4 6 Norte 12 Norte 0 -- -- 65
2021-01-03 00:00:00 2.7 6 Norte 17 Norte 0 -- -- 66
2021-01-02 23:00:00 3 8 Norte 17 Norte 0 -- -- 63
2021-01-02 22:00:00 3.2 9 Norte 14 Norte 0 -- -- 60
2021-01-02 21:00:00 4.1 10 Norte 23 Noroeste 0 -- -- 58
2021-01-02 20:00:00 4.7 10 Norte 22 Noroeste 0 -- -- 58
2021-01-02 19:00:00 5.7 12 Norte 27 Norte 0 -- -- 56
2021-01-02 18:00:00 6 13 Norte 32 Noroeste 0 -- -- 55
2021-01-02 17:00:00 6.5 17 Norte 36 Noroeste 0 -- -- 53
2021-01-02 16:00:00 7.5 18 Norte 36 Noroeste 0 -- -- 48
2021-01-02 15:00:00 7.5 16 Norte 34 Noroeste 0 -- -- 49
2021-01-02 14:00:00 6.7 12 Noroeste 39 Noroeste 0 -- -- 52